Time;durP1;ratioP1;P1;durP2;ratioP2;P2;SDS_P1;SDS_P2;PMS_P1;PMS_P2;Temp;Humidity;BMP_temperature;BMP_pressure;BME280_temperature;BME280_humidity;BME280_pressure;Samples;Min_cycle;Max_cycle;Signal;HPM_P1;HPM_P2
2021/09/20 00:00:33;;;;;;;;;;;;;;;-142.75;87.04;77219.94;5029486;28;19920;-79
2021/09/20 00:02:58;;;;;;;;;;;;;;;-142.75;86.19;77235.69;5030627;28;19913;-78
2021/09/20 00:05:23;;;;;;;;;;;;;;;-142.75;85.71;77235.69;5029793;28;19917;-79
2021/09/20 00:07:48;;;;;;;;;;;;;;;-142.75;86.29;77227.81;5031471;28;20390;-81
2021/09/20 00:10:13;;;;;;;;;;;;;;;-142.75;86.13;77231.75;5030666;28;19982;-78
2021/09/20 00:12:39;;;;;;;;;;;;;;;-142.75;86.38;77217.97;5033315;28;19921;-80
2021/09/20 00:15:04;;;;;;;;;;;;;;;-142.75;85.86;77200.25;5028612;28;19924;-79
2021/09/20 00:17:30;;;;;;;;;;;;;;;-142.75;85.74;77216.00;5036992;28;19912;-82
2021/09/20 00:19:55;;;;;;;;;;;;;;;-142.75;84.78;77217.97;5045287;22;19925;-78
2021/09/20 00:22:20;;;;;;;;;;;;;;;-142.75;84.74;77217.97;5019737;28;19971;-76
2021/09/20 00:24:45;;;;;;;;;;;;;;;-142.75;84.02;77221.91;5023710;28;20270;-76
2021/09/20 00:27:12;;;;;;;;;;;;;;;-142.75;84.81;77235.69;5029737;28;19924;-77
2021/09/20 00:29:37;;;;;;;;;;;;;;;-142.75;85.14;77235.69;5043162;28;20401;-77
2021/09/20 00:32:03;;;;;;;;;;;;;;;-142.75;85.53;77241.59;5046611;28;19913;-77
2021/09/20 00:34:28;;;;;;;;;;;;;;;-142.75;85.88;77245.53;5043574;28;20341;-78
2021/09/20 00:36:53;;;;;;;;;;;;;;;-142.75;86.21;77231.75;5046481;28;20345;-77
2021/09/20 00:39:18;;;;;;;;;;;;;;;-142.75;85.32;77233.72;5027501;28;19908;-77
2021/09/20 00:41:43;;;;;;;;;;;;;;;-142.75;83.74;77239.63;5045933;28;20420;-77
2021/09/20 00:44:08;;;;;;;;;;;;;;;-142.75;83.27;77237.66;5025113;28;19924;-76
2021/09/20 00:46:34;;;;;;;;;;;;;;;-142.75;84.32;77245.53;5036321;28;19916;-77
2021/09/20 00:48:59;;;;;;;;;;;;;;;-142.75;85.05;77243.56;5051808;28;19938;-76
2021/09/20 00:51:24;;;;;;;;;;;;;;;-142.75;85.58;77239.63;5050373;28;19917;-77
2021/09/20 00:53:50;;;;;;;;;;;;;;;-142.75;86.63;77235.69;5042743;28;20028;-77
2021/09/20 00:56:15;;;;;;;;;;;;;;;-142.75;85.52;77231.75;5025584;28;19943;-77
2021/09/20 00:58:40;;;;;;;;;;;;;;;-142.75;84.43;77235.69;5046038;28;19912;-78
2021/09/20 01:01:05;;;;;;;;;;;;;;;-142.75;83.88;77243.56;5038497;28;19913;-77
2021/09/20 01:03:30;;;;;;;;;;;;;;;-142.75;83.45;77249.47;5047046;28;19921;-77
2021/09/20 01:05:58;;;;;;;;;;;;;;;-142.75;84.45;77255.38;5047471;28;19924;-75
2021/09/20 01:08:24;;;;;;;;;;;;;;;-142.75;84.78;77259.31;5044667;28;19921;-77
2021/09/20 01:10:49;;;;;;;;;;;;;;;-142.75;85.29;77265.22;5040565;28;20408;-76
2021/09/20 01:13:14;;;;;;;;;;;;;;;-142.75;85.62;77267.19;5023161;28;20433;-77
2021/09/20 01:15:39;;;;;;;;;;;;;;;-142.75;85.32;77275.06;5040839;28;20020;-77
2021/09/20 01:18:04;;;;;;;;;;;;;;;-142.75;85.20;77273.09;5044724;28;19913;-77
2021/09/20 01:20:29;;;;;;;;;;;;;;;-142.75;85.85;77279.00;5027985;28;19913;-78
2021/09/20 01:23:01;;;;;;;;;;;;;;;-142.75;84.72;77273.09;5048489;28;19920;-77
2021/09/20 01:25:27;;;;;;;;;;;;;;;-142.75;84.22;77275.06;5030355;28;19923;-77
2021/09/20 01:27:53;;;;;;;;;;;;;;;-142.75;84.47;77284.91;5042950;28;19917;-76
2021/09/20 01:30:18;;;;;;;;;;;;;;;-142.75;84.48;77286.88;5022072;28;19917;-77
2021/09/20 01:32:45;;;;;;;;;;;;;;;-142.75;84.31;77282.94;5028563;28;19920;-77
2021/09/20 01:35:10;;;;;;;;;;;;;;;-142.75;82.90;77298.69;5044022;28;19916;-77
2021/09/20 01:37:35;;;;;;;;;;;;;;;-142.75;83.33;77290.81;5046985;28;19921;-77
2021/09/20 01:40:00;;;;;;;;;;;;;;;-142.75;83.08;77306.56;5028532;28;19976;-77
2021/09/20 01:42:26;;;;;;;;;;;;;;;-142.75;82.69;77294.75;5026581;28;20262;-76
2021/09/20 01:44:51;;;;;;;;;;;;;;;-142.75;82.77;77310.50;5018172;28;19924;-76
2021/09/20 01:47:16;;;;;;;;;;;;;;;-142.75;82.51;77306.56;5022646;28;19913;-76
2021/09/20 01:49:41;;;;;;;;;;;;;;;-142.75;82.19;77308.53;5047306;28;19912;-77
2021/09/20 01:52:06;;;;;;;;;;;;;;;-142.75;82.31;77298.69;5027843;28;19982;-77
2021/09/20 01:54:32;;;;;;;;;;;;;;;-142.75;81.99;77302.63;5025591;28;19913;-77
2021/09/20 01:56:57;;;;;;;;;;;;;;;-142.75;81.28;77306.56;5042967;28;19913;-77
2021/09/20 01:59:23;;;;;;;;;;;;;;;-142.75;81.28;77306.56;5027726;28;20432;-77
2021/09/20 02:01:48;;;;;;;;;;;;;;;-142.75;81.33;77310.50;5045650;28;19912;-77
2021/09/20 02:04:14;;;;;;;;;;;;;;;-142.75;81.06;77310.50;5045634;28;20008;-76
2021/09/20 02:06:39;;;;;;;;;;;;;;;-142.75;80.91;77314.44;5026689;28;20011;-76
2021/09/20 02:09:08;;;;;;;;;;;;;;;-142.75;81.46;77318.38;5045461;28;19962;-76
2021/09/20 02:11:33;;;;;;;;;;;;;;;-142.75;81.85;77314.44;5044129;28;20270;-76
2021/09/20 02:13:58;;;;;;;;;;;;;;;-142.75;81.54;77320.34;5046995;28;19987;-77
2021/09/20 02:16:24;;;;;;;;;;;;;;;-142.75;81.57;77314.44;5045867;28;19928;-77
2021/09/20 02:18:49;;;;;;;;;;;;;;;-142.75;81.05;77320.34;5045196;28;19912;-77
2021/09/20 02:21:14;;;;;;;;;;;;;;;-142.75;81.53;77322.31;5041083;28;19920;-76
2021/09/20 02:23:40;;;;;;;;;;;;;;;-142.75;81.16;77306.56;5024447;28;19913;-76
2021/09/20 02:26:05;;;;;;;;;;;;;;;-142.75;80.26;77320.34;5038562;28;19917;-76
2021/09/20 02:28:30;;;;;;;;;;;;;;;-142.75;80.34;77342.00;5032282;28;19913;-76
2021/09/20 02:30:56;;;;;;;;;;;;;;;-142.75;82.39;77345.94;5021284;28;19958;-76
2021/09/20 02:33:21;;;;;;;;;;;;;;;-142.75;81.71;77347.91;5037853;28;20003;-77
2021/09/20 02:35:47;;;;;;;;;;;;;;;-142.75;81.66;77342.00;5041536;28;19913;-76
2021/09/20 02:38:12;;;;;;;;;;;;;;;-142.75;80.89;77343.97;5041631;28;19920;-76
2021/09/20 02:40:37;;;;;;;;;;;;;;;-142.75;80.32;77353.81;5044574;28;20016;-76
2021/09/20 02:43:03;;;;;;;;;;;;;;;-142.75;81.46;77349.88;5042325;28;19966;-76
2021/09/20 02:45:28;;;;;;;;;;;;;;;-142.75;80.86;77361.69;5042112;28;19917;-76
2021/09/20 02:47:53;;;;;;;;;;;;;;;-142.75;80.77;77369.56;5038901;28;19924;-76
2021/09/20 02:50:19;;;;;;;;;;;;;;;-142.75;80.60;77379.41;5029767;28;20473;-76
2021/09/20 02:52:44;;;;;;;;;;;;;;;-142.75;80.78;77381.38;5041495;28;19917;-76
2021/09/20 02:55:10;;;;;;;;;;;;;;;-142.75;81.08;77375.47;5026211;28;19921;-77
2021/09/20 02:57:35;;;;;;;;;;;;;;;-142.75;80.96;77377.44;5046254;28;19919;-76
2021/09/20 03:00:00;;;;;;;;;;;;;;;-142.75;80.57;77373.50;5038160;28;19914;-76
2021/09/20 03:02:26;;;;;;;;;;;;;;;-142.75;80.22;77381.38;5040382;28;19951;-76
2021/09/20 03:04:51;;;;;;;;;;;;;;;-142.75;80.63;77387.28;5029381;28;20006;-77
2021/09/20 03:07:16;;;;;;;;;;;;;;;-142.75;80.42;77381.38;5044493;28;19966;-77
2021/09/20 03:09:42;;;;;;;;;;;;;;;-142.75;80.34;77385.31;5042647;28;20445;-75
2021/09/20 03:12:07;;;;;;;;;;;;;;;-142.75;80.57;77397.13;5019410;28;19927;-77
2021/09/20 03:14:32;;;;;;;;;;;;;;;-142.75;80.80;77401.06;5035683;28;19919;-76
2021/09/20 03:16:58;;;;;;;;;;;;;;;-142.75;80.78;77397.13;5038588;28;20033;-76
2021/09/20 03:19:23;;;;;;;;;;;;;;;-142.75;79.40;77403.03;5027157;28;20359;-77
2021/09/20 03:21:48;;;;;;;;;;;;;;;-142.75;79.29;77389.25;5024751;28;19912;-76
2021/09/20 03:24:14;;;;;;;;;;;;;;;-142.75;79.66;77393.19;5020336;28;20298;-77
2021/09/20 03:26:39;;;;;;;;;;;;;;;-142.75;81.14;77405.00;5019836;28;20423;-76
2021/09/20 03:29:05;;;;;;;;;;;;;;;-142.75;82.16;77416.81;5045654;28;19921;-76
2021/09/20 03:31:30;;;;;;;;;;;;;;;-142.75;82.20;77424.69;5022853;28;19946;-75
2021/09/20 03:33:55;;;;;;;;;;;;;;;-142.75;81.73;77420.75;5023915;28;19913;-76
2021/09/20 03:36:20;;;;;;;;;;;;;;;-142.75;81.49;77432.56;5043860;28;20020;-76
2021/09/20 03:38:46;;;;;;;;;;;;;;;-142.75;81.75;77444.38;5046379;28;19920;-76
2021/09/20 03:41:11;;;;;;;;;;;;;;;-142.75;81.27;77448.34;5041456;28;19921;-77
2021/09/20 03:43:36;;;;;;;;;;;;;;;-142.75;81.71;77434.53;5042340;28;19913;-76
2021/09/20 03:46:01;;;;;;;;;;;;;;;-142.75;81.42;77432.56;5024426;28;19990;-77
2021/09/20 03:48:27;;;;;;;;;;;;;;;-142.75;79.97;77462.13;5048870;28;19913;-77
2021/09/20 03:50:52;;;;;;;;;;;;;;;-142.75;79.98;77450.28;5031236;28;19936;-76
2021/09/20 03:53:17;;;;;;;;;;;;;;;-142.75;80.48;77454.25;5039831;28;19913;-77
2021/09/20 03:55:42;;;;;;;;;;;;;;;-142.75;80.68;77456.22;5030014;28;20369;-76
2021/09/20 03:58:07;;;;;;;;;;;;;;;-142.75;80.84;77464.09;5045293;28;19939;-76
2021/09/20 04:00:33;;;;;;;;;;;;;;;-142.75;80.78;77471.97;5019107;28;19956;-76
2021/09/20 04:02:58;;;;;;;;;;;;;;;-142.75;80.31;77471.97;5046098;28;19999;-76
2021/09/20 04:05:23;;;;;;;;;;;;;;;-142.75;81.39;77473.94;5029518;28;20542;-76
2021/09/20 04:07:48;;;;;;;;;;;;;;;-142.75;80.54;77473.94;5047653;28;19916;-75
2021/09/20 04:10:15;;;;;;;;;;;;;;;-142.75;80.75;77477.88;5046274;28;19917;-77
2021/09/20 04:12:40;;;;;;;;;;;;;;;-142.75;80.33;77481.81;5042808;28;19936;-77
2021/09/20 04:15:05;;;;;;;;;;;;;;;-142.75;79.59;77497.56;5030713;28;20362;-76
2021/09/20 04:17:30;;;;;;;;;;;;;;;-142.75;79.83;77509.38;5045244;28;19913;-77
2021/09/20 04:19:56;;;;;;;;;;;;;;;-142.75;79.57;77499.53;5046380;28;20451;-75
2021/09/20 04:22:21;;;;;;;;;;;;;;;-142.75;80.05;77511.34;5048347;28;19920;-77
2021/09/20 04:24:46;;;;;;;;;;;;;;;-142.75;80.38;77519.22;5049713;28;20266;-76
2021/09/20 04:27:11;;;;;;;;;;;;;;;-142.75;80.45;77519.22;5044311;28;19919;-76
2021/09/20 04:29:37;;;;;;;;;;;;;;;-142.75;80.11;77523.16;5018887;28;19936;-77
2021/09/20 04:32:02;;;;;;;;;;;;;;;-142.75;79.45;77527.09;5036439;28;19956;-77
2021/09/20 04:34:27;;;;;;;;;;;;;;;-142.75;80.10;77534.97;5046660;28;20389;-76
2021/09/20 04:36:53;;;;;;;;;;;;;;;-142.75;79.54;77544.81;5042857;28;19957;-77
2021/09/20 04:39:18;;;;;;;;;;;;;;;-142.75;80.48;77540.88;5054164;28;20361;-76
2021/09/20 04:41:43;;;;;;;;;;;;;;;-142.75;80.36;77546.78;5035189;28;20285;-76
2021/09/20 04:44:08;;;;;;;;;;;;;;;-142.75;80.34;77550.72;5016340;28;19971;-77
2021/09/20 04:46:34;;;;;;;;;;;;;;;-142.75;80.29;77548.75;5020782;28;19982;-76
2021/09/20 04:48:59;;;;;;;;;;;;;;;-142.75;80.42;77550.72;5045408;28;19932;-79
2021/09/20 04:51:24;;;;;;;;;;;;;;;-142.75;79.90;77556.63;5016515;28;19913;-76
2021/09/20 04:53:49;;;;;;;;;;;;;;;-142.75;79.00;77558.59;5038270;28;19920;-76
2021/09/20 04:56:16;;;;;;;;;;;;;;;-142.75;79.07;77560.56;5047881;28;20601;-76
2021/09/20 04:58:41;;;;;;;;;;;;;;;-142.75;79.20;77562.53;5017028;28;19913;-77
2021/09/20 05:01:07;;;;;;;;;;;;;;;-142.75;78.59;77572.38;5046818;28;20321;-76
2021/09/20 05:03:32;;;;;;;;;;;;;;;-142.75;78.47;77588.13;5040599;28;19936;-76
2021/09/20 05:05:57;;;;;;;;;;;;;;;-142.75;78.56;77590.09;5043475;28;20293;-76
2021/09/20 05:08:22;;;;;;;;;;;;;;;-142.75;79.22;77592.06;5022143;28;19913;-76
2021/09/20 05:10:47;;;;;;;;;;;;;;;-142.75;79.61;77588.13;5024882;28;19921;-76
2021/09/20 05:13:13;;;;;;;;;;;;;;;-142.75;79.63;77592.06;5031130;28;20400;-76
2021/09/20 05:15:38;;;;;;;;;;;;;;;-142.75;80.02;77605.84;5018213;28;19929;-76
2021/09/20 05:18:03;;;;;;;;;;;;;;;-142.75;80.24;77603.88;5050758;28;19932;-76
2021/09/20 05:20:28;;;;;;;;;;;;;;;-142.75;79.84;77605.84;5048234;28;19913;-76
2021/09/20 05:22:53;;;;;;;;;;;;;;;-142.75;79.96;77601.91;5023362;28;20448;-77
2021/09/20 05:25:18;;;;;;;;;;;;;;;-142.75;79.60;77607.81;5020809;28;19917;-77
2021/09/20 05:27:44;;;;;;;;;;;;;;;-142.75;80.05;77592.06;5045771;28;19939;-76
2021/09/20 05:30:10;;;;;;;;;;;;;;;-142.75;79.72;77597.97;5047687;28;19967;-76
2021/09/20 05:32:36;;;;;;;;;;;;;;;-142.75;79.57;77611.75;5047086;28;20392;-75
2021/09/20 05:35:01;;;;;;;;;;;;;;;-142.75;79.88;77605.84;5046254;28;20004;-76
2021/09/20 05:37:26;;;;;;;;;;;;;;;-142.75;79.53;77597.97;5032867;28;19948;-76
2021/09/20 05:39:52;;;;;;;;;;;;;;;-142.75;79.06;77588.13;5028179;28;19935;-76
2021/09/20 05:42:17;;;;;;;;;;;;;;;-142.75;78.81;77582.22;5044924;28;19973;-76
2021/09/20 05:44:42;;;;;;;;;;;;;;;-142.75;79.11;77586.16;5021712;28;19983;-76
2021/09/20 05:47:08;;;;;;;;;;;;;;;-142.75;79.40;77594.03;5033384;28;19912;-76
2021/09/20 05:49:33;;;;;;;;;;;;;;;-142.75;78.99;77586.16;5034666;28;19920;-76
2021/09/20 05:51:58;;;;;;;;;;;;;;;-142.75;79.78;77576.31;5050421;28;19935;-77
2021/09/20 05:54:23;;;;;;;;;;;;;;;-142.75;79.04;77574.34;5039920;28;19917;-76
2021/09/20 05:56:48;;;;;;;;;;;;;;;-142.75;78.47;77576.31;5033412;28;20019;-76
2021/09/20 05:59:14;;;;;;;;;;;;;;;-142.75;77.85;77592.06;5034742;28;19917;-76
2021/09/20 06:01:39;;;;;;;;;;;;;;;-142.75;78.04;77605.84;5032791;28;19917;-76
2021/09/20 06:04:04;;;;;;;;;;;;;;;-142.75;78.64;77597.97;5032962;28;19978;-76
2021/09/20 06:06:29;;;;;;;;;;;;;;;-142.75;78.16;77588.13;5026029;28;19913;-77
2021/09/20 06:08:54;;;;;;;;;;;;;;;-142.75;77.98;77586.16;5031559;28;20306;-75
2021/09/20 06:11:20;;;;;;;;;;;;;;;-142.75;78.71;77588.13;5035795;28;19913;-76
2021/09/20 06:13:45;;;;;;;;;;;;;;;-142.75;78.53;77574.34;5017447;28;20345;-76
2021/09/20 06:16:10;;;;;;;;;;;;;;;-142.75;77.71;77582.22;5049801;28;19924;-76
2021/09/20 06:21:03;;;;;;;;;;;;;;;-142.75;76.93;77582.22;5043244;28;19967;-81
2021/09/20 06:23:28;;;;;;;;;;;;;;;-142.75;77.80;77588.13;5025077;28;19917;-80
2021/09/20 06:25:54;;;;;;;;;;;;;;;-142.75;77.49;77590.09;5036717;28;19920;-79
2021/09/20 06:28:19;;;;;;;;;;;;;;;-142.75;77.89;77592.06;5026650;28;19912;-80
2021/09/20 06:30:44;;;;;;;;;;;;;;;-142.75;77.83;77586.16;5036187;28;19912;-80
2021/09/20 06:33:10;;;;;;;;;;;;;;;-142.75;76.58;77582.22;5054596;28;20313;-80
2021/09/20 06:35:35;;;;;;;;;;;;;;;-142.75;75.87;77578.28;5036161;28;19920;-79
2021/09/20 06:38:00;;;;;;;;;;;;;;;-142.75;75.87;77574.34;5037621;28;20416;-83
2021/09/20 06:40:25;;;;;;;;;;;;;;;-142.75;76.50;77590.09;5036507;28;20270;-80
2021/09/20 06:42:51;;;;;;;;;;;;;;;-142.75;76.25;77594.03;5035524;28;19912;-80
2021/09/20 06:45:16;;;;;;;;;;;;;;;-142.75;75.85;77590.09;5054230;28;19916;-80
2021/09/20 06:47:41;;;;;;;;;;;;;;;-142.75;76.06;77592.06;5035797;28;19916;-80
2021/09/20 06:50:07;;;;;;;;;;;;;;;-142.75;77.05;77570.41;5053788;28;19912;-78
2021/09/20 06:52:32;;;;;;;;;;;;;;;-142.75;77.41;77548.75;5036203;28;19924;-81
2021/09/20 06:54:57;;;;;;;;;;;;;;;-142.75;74.05;77534.97;5034957;28;19917;-81
2021/09/20 06:57:23;;;;;;;;;;;;;;;-142.75;72.91;77503.47;5036330;28;19912;-81
2021/09/20 06:59:48;;;;;;;;;;;;;;;-142.75;71.86;77481.81;5036890;28;19913;-81
2021/09/20 07:02:13;;;;;;;;;;;;;;;-142.75;71.09;77450.28;5053700;28;19912;-78
2021/09/20 07:04:38;;;;;;;;;;;;;;;-142.75;69.64;77403.03;5051867;28;19916;-80
2021/09/20 07:07:03;;;;;;;;;;;;;;;-142.75;67.78;77412.88;5052054;28;20362;-79
2021/09/20 07:09:29;;;;;;;;;;;;;;;-142.75;68.58;77383.34;5032074;28;19919;-81
2021/09/20 07:11:54;;;;;;;;;;;;;;;-142.75;66.95;77338.06;5051672;28;19912;-80
2021/09/20 07:14:19;;;;;;;;;;;;;;;-142.75;65.15;77279.00;5032740;28;19913;-82
2021/09/20 07:16:44;;;;;;;;;;;;;;;-142.75;63.64;77219.94;5034172;28;20402;-79
2021/09/20 07:19:10;;;;;;;;;;;;;;;-142.75;61.88;77194.34;5033985;28;19925;-79
2021/09/20 07:21:35;;;;;;;;;;;;;;;-142.75;61.19;77133.31;5051760;28;19913;-81
2021/09/20 07:24:00;;;;;;;;;;;;;;;-142.75;59.88;77034.88;5052329;28;19997;-82
2021/09/20 07:26:27;;;;;;;;;;;;;;;-142.75;55.79;77011.25;5033757;28;19928;-79
2021/09/20 07:28:53;;;;;;;;;;;;;;;-142.75;56.86;77070.31;5032546;28;20017;-79
2021/09/20 07:31:19;;;;;;;;;;;;;;;-142.75;58.19;77127.41;5051528;28;20378;-81
2021/09/20 07:33:44;;;;;;;;;;;;;;;-142.75;58.67;77095.91;5033824;28;19919;-80
2021/09/20 07:36:09;;;;;;;;;;;;;;;-142.75;58.32;77125.44;5034037;28;19916;-79
2021/09/20 07:38:35;;;;;;;;;;;;;;;-142.75;58.98;77066.38;5052937;28;19999;-77
2021/09/20 07:41:01;;;;;;;;;;;;;;;-142.75;58.63;77034.88;5033937;28;20007;-79
2021/09/20 07:43:26;;;;;;;;;;;;;;;-142.75;56.32;77095.91;5033873;28;19944;-78
2021/09/20 07:45:51;;;;;;;;;;;;;;;-142.75;56.78;77090.00;5032954;28;19932;-79
2021/09/20 07:48:16;;;;;;;;;;;;;;;-142.75;57.23;77068.34;5032769;28;19912;-78
2021/09/20 07:50:42;;;;;;;;;;;;;;;-142.75;56.00;76991.56;5051011;28;19939;-81
2021/09/20 07:53:07;;;;;;;;;;;;;;;-142.75;55.48;76946.28;5051444;28;19921;-80
2021/09/20 07:55:36;;;;;;;;;;;;;;;-142.75;53.47;76853.75;5051033;28;20370;-81
2021/09/20 07:58:05;;;;;;;;;;;;;;;-142.75;51.75;76731.72;5033022;28;19912;-81
2021/09/20 08:00:30;;;;;;;;;;;;;;;-142.75;48.14;76680.53;5032333;28;19912;-80
2021/09/20 08:02:55;;;;;;;;;;;;;;;-142.75;49.13;76816.34;5033842;28;19931;-80
2021/09/20 08:05:20;;;;;;;;;;;;;;;-142.75;51.90;76822.25;5051066;28;19920;-80
2021/09/20 08:07:45;;;;;;;;;;;;;;;-142.75;52.39;76800.63;5052247;28;20297;-82
2021/09/20 08:10:11;;;;;;;;;;;;;;;-142.75;50.07;76782.91;5053113;28;20309;-80
2021/09/20 08:12:36;;;;;;;;;;;;;;;-142.75;50.29;76749.44;5052044;28;20400;-78
2021/09/20 08:15:02;;;;;;;;;;;;;;;-142.75;48.56;76761.25;5052263;28;19948;-82
2021/09/20 08:17:27;;;;;;;;;;;;;;;-142.75;48.69;76836.03;5054607;28;19974;-79
2021/09/20 08:19:52;;;;;;;;;;;;;;;-142.75;51.46;76901.00;5035628;28;19912;-80
2021/09/20 08:22:17;;;;;;;;;;;;;;;-142.75;51.19;76904.94;5057623;28;19916;-78
2021/09/20 08:24:43;;;;;;;;;;;;;;;-142.75;51.13;76926.59;5057772;28;19925;-80
2021/09/20 08:27:08;;;;;;;;;;;;;;;-142.75;51.38;76930.53;5038132;28;19913;-78
2021/09/20 08:29:33;;;;;;;;;;;;;;;-142.75;51.08;76865.56;5037516;28;20361;-78
2021/09/20 08:31:58;;;;;;;;;;;;;;;-142.75;49.77;76751.41;5039014;28;19933;-78
2021/09/20 08:34:23;;;;;;;;;;;;;;;-142.75;47.58;76662.81;5037785;28;19916;-79
2021/09/20 08:36:49;;;;;;;;;;;;;;;-142.75;46.37;76534.84;5056164;28;20293;-76
2021/09/20 08:39:14;;;;;;;;;;;;;;;-142.75;44.24;76641.16;5054208;28;19966;-80
2021/09/20 08:41:41;;;;;;;;;;;;;;;-142.75;45.35;76682.50;5048246;28;19956;-78
2021/09/20 08:44:09;;;;;;;;;;;;;;;-142.75;46.40;76845.88;5053273;28;19917;-79
2021/09/20 08:46:36;;;;;;;;;;;;;;;-142.75;48.63;76922.66;5034698;28;19920;-80
2021/09/20 08:49:01;;;;;;;;;;;;;;;-142.75;51.09;76869.50;5054280;28;20404;-79
2021/09/20 08:51:27;;;;;;;;;;;;;;;-142.75;47.91;76885.25;5054110;28;19944;-79
2021/09/20 08:53:52;;;;;;;;;;;;;;;-142.75;46.97;76818.31;5037400;28;19923;-80
2021/09/20 08:56:18;;;;;;;;;;;;;;;-142.75;44.48;76826.19;5037519;28;20003;-79
2021/09/20 08:58:43;;;;;;;;;;;;;;;-142.75;46.29;76739.59;5037247;28;19924;-81
2021/09/20 09:01:08;;;;;;;;;;;;;;;-142.75;42.30;76637.22;5054619;28;19920;-79
2021/09/20 09:03:33;;;;;;;;;;;;;;;-142.75;40.78;76649.03;5036059;28;19966;-78
2021/09/20 09:05:59;;;;;;;;;;;;;;;-142.75;41.56;76554.53;5035103;28;19946;-79
2021/09/20 09:08:35;;;;;;;;;;;;;;;-142.75;41.20;76739.59;5051533;28;20376;-78
2021/09/20 09:11:02;;;;;;;;;;;;;;;-142.75;43.54;76708.09;5051787;28;19912;-79
2021/09/20 09:13:35;;;;;;;;;;;;;;;-142.75;42.41;76778.97;5036667;28;19955;-81
2021/09/20 09:16:15;;;;;;;;;;;;;;;-142.75;43.24;76739.59;5036634;28;19912;-79
2021/09/20 09:19:16;;;;;;;;;;;;;;;-142.75;43.73;76735.66;5054325;28;19956;-80
2021/09/20 09:21:43;;;;;;;;;;;;;;;-142.75;42.73;76700.22;4954512;29;19970;-79
2021/09/20 09:24:08;;;;;;;;;;;;;;;-142.75;41.01;76591.94;5015758;28;19924;-78
2021/09/20 09:26:33;;;;;;;;;;;;;;;-142.75;41.63;76723.84;5054670;28;20431;-79
2021/09/20 09:29:06;;;;;;;;;;;;;;;-142.75;42.04;76778.97;5054909;28;19920;-81
2021/09/20 09:31:36;;;;;;;;;;;;;;;-142.75;43.66;76822.25;5035812;28;19920;-80
2021/09/20 09:34:12;;;;;;;;;;;;;;;-142.75;44.35;76853.75;5035160;28;20382;-78
2021/09/20 09:36:41;;;;;;;;;;;;;;;-142.75;43.21;76806.50;5035228;28;19920;-79
2021/09/20 09:39:06;;;;;;;;;;;;;;;-142.75;45.67;76662.81;5036381;28;19913;-78
2021/09/20 09:41:33;;;;;;;;;;;;;;;-142.75;41.32;76479.75;5036320;28;19913;-80
2021/09/20 09:44:01;;;;;;;;;;;;;;;-142.75;40.56;76452.19;5035631;28;20401;-80
2021/09/20 09:46:26;;;;;;;;;;;;;;;-142.75;40.11;76507.31;5054507;28;19920;-79
2021/09/20 09:48:54;;;;;;;;;;;;;;;-142.75;40.52;76475.81;5036638;28;19921;-80
2021/09/20 09:51:19;;;;;;;;;;;;;;;-142.75;39.61;76517.16;5036468;28;19916;-79
2021/09/20 09:53:46;;;;;;;;;;;;;;;-142.75;40.43;76641.16;5054394;28;19913;-79
2021/09/20 09:56:14;;;;;;;;;;;;;;;-142.75;42.39;76782.91;5054596;28;19920;-79
2021/09/20 09:58:50;;;;;;;;;;;;;;;-142.75;43.88;76814.38;5036827;28;20284;-79
2021/09/20 10:01:16;;;;;;;;;;;;;;;-142.75;44.70;76706.13;5035492;28;19927;-80
2021/09/20 10:04:00;;;;;;;;;;;;;;;-142.75;41.23;76534.84;5034673;28;19912;-80
2021/09/20 10:06:25;;;;;;;;;;;;;;;-142.75;42.67;76597.84;5035882;28;19923;-82
2021/09/20 10:08:50;;;;;;;;;;;;;;;-142.75;43.63;76572.25;5053860;28;19916;-78
2021/09/20 10:11:16;;;;;;;;;;;;;;;-142.75;42.86;76692.34;5035684;28;19919;-79
2021/09/20 10:13:41;;;;;;;;;;;;;;;-142.75;44.36;76741.56;5036025;28;19913;-80
2021/09/20 10:16:06;;;;;;;;;;;;;;;-142.75;44.43;76635.25;5036322;28;20312;-80
2021/09/20 10:18:31;;;;;;;;;;;;;;;-142.75;41.81;76495.50;5036102;28;20058;-79
2021/09/20 10:20:56;;;;;;;;;;;;;;;-142.75;42.07;76408.88;5035957;28;19913;-80
2021/09/20 10:23:22;;;;;;;;;;;;;;;-142.75;40.63;76408.88;5053924;28;19938;-81
2021/09/20 10:25:47;;;;;;;;;;;;;;;-142.75;39.79;76397.06;5035343;28;19927;-80
2021/09/20 10:28:12;;;;;;;;;;;;;;;-142.75;39.97;76316.38;5054158;28;19917;-80
2021/09/20 10:30:38;;;;;;;;;;;;;;;-142.75;39.46;76206.13;5054163;28;19920;-78
2021/09/20 10:33:07;;;;;;;;;;;;;;;-142.75;38.50;76444.31;5054072;28;19913;-82
2021/09/20 10:35:38;;;;;;;;;;;;;;;-142.75;40.16;76491.56;5035508;28;19919;-79
2021/09/20 10:38:12;;;;;;;;;;;;;;;-142.75;42.16;76347.84;5035965;28;20452;-79
2021/09/20 10:40:37;;;;;;;;;;;;;;;-142.75;38.39;76176.63;5053506;28;20423;-79
2021/09/20 10:43:04;;;;;;;;;;;;;;;-142.75;35.29;76153.00;5035349;28;19925;-79
2021/09/20 10:45:32;;;;;;;;;;;;;;;-142.75;39.32;76475.81;5034907;28;19999;-80
2021/09/20 10:48:01;;;;;;;;;;;;;;;-142.75;40.22;76568.31;5035323;28;19912;-79
2021/09/20 10:50:41;;;;;;;;;;;;;;;-142.75;40.73;76513.22;5035561;28;19932;-80
2021/09/20 10:53:19;;;;;;;;;;;;;;;-142.75;38.95;76511.25;5053588;28;19912;-79
2021/09/20 10:56:03;;;;;;;;;;;;;;;-142.75;38.94;76475.81;5053033;28;19913;-82
2021/09/20 10:58:28;;;;;;;;;;;;;;;-142.75;40.70;76652.97;5035845;28;20356;-80
2021/09/20 11:01:12;;;;;;;;;;;;;;;-142.75;41.20;76625.41;5035778;28;19962;-79
2021/09/20 11:03:45;;;;;;;;;;;;;;;-142.75;40.19;76578.16;5052081;28;19948;-80
2021/09/20 11:06:20;;;;;;;;;;;;;;;-142.75;40.29;76668.72;5052184;28;19921;-78
2021/09/20 11:08:47;;;;;;;;;;;;;;;-142.75;41.08;76715.97;5053170;28;20428;-80
2021/09/20 11:11:31;;;;;;;;;;;;;;;-142.75;41.09;76755.34;5053313;28;19944;-80
2021/09/20 11:13:59;;;;;;;;;;;;;;;-142.75;40.36;76715.97;5033253;28;19916;-80
2021/09/20 11:16:43;;;;;;;;;;;;;;;-142.75;39.48;76761.25;5052486;28;19980;-79
2021/09/20 11:19:24;;;;;;;;;;;;;;;-142.75;39.22;76670.69;5035279;28;19920;-78
2021/09/20 11:22:13;;;;;;;;;;;;;;;-142.75;40.54;76704.16;5035821;28;20286;-82
2021/09/20 11:24:47;;;;;;;;;;;;;;;-142.75;39.05;76708.09;5024862;28;20356;-81
2021/09/20 11:27:22;;;;;;;;;;;;;;;-142.75;39.33;76714.00;5034895;28;20345;-80
2021/09/20 11:29:51;;;;;;;;;;;;;;;-142.75;40.21;76696.28;5054425;28;19917;-80
2021/09/20 11:32:16;;;;;;;;;;;;;;;-142.75;39.49;76712.03;5035428;28;19935;-79
2021/09/20 11:34:47;;;;;;;;;;;;;;;-142.75;39.61;76727.78;5035096;28;20377;-79
2021/09/20 11:37:29;;;;;;;;;;;;;;;-142.75;40.63;76782.91;5035039;28;19912;-79
2021/09/20 11:39:56;;;;;;;;;;;;;;;-142.75;41.07;76806.50;5052145;28;20352;-80
2021/09/20 11:42:22;;;;;;;;;;;;;;;-142.75;39.91;76782.91;5053719;28;19919;-79
2021/09/20 11:44:49;;;;;;;;;;;;;;;-142.75;40.73;76777.00;5053358;28;19920;-81
2021/09/20 11:47:15;;;;;;;;;;;;;;;-142.75;39.96;76869.50;5035718;28;19958;-82
2021/09/20 11:49:41;;;;;;;;;;;;;;;-142.75;41.52;76885.25;5035259;28;19976;-79
2021/09/20 11:52:06;;;;;;;;;;;;;;;-142.75;41.36;76924.63;5035017;28;19913;-79
2021/09/20 11:54:34;;;;;;;;;;;;;;;-142.75;40.86;76942.34;5035121;28;20003;-78
2021/09/20 11:57:11;;;;;;;;;;;;;;;-142.75;42.19;76912.81;5038277;28;20003;-77
2021/09/20 11:59:36;;;;;;;;;;;;;;;-142.75;41.30;76902.97;5055790;28;19931;-80
2021/09/20 12:02:02;;;;;;;;;;;;;;;-142.75;41.87;76926.59;5056628;28;19913;-78
2021/09/20 12:04:47;;;;;;;;;;;;;;;-142.75;40.99;76897.06;5038357;28;19921;-79
2021/09/20 12:07:24;;;;;;;;;;;;;;;-142.75;41.66;76944.31;5038689;28;20002;-80
2021/09/20 12:09:50;;;;;;;;;;;;;;;-142.75;42.32;76993.53;5056510;28;19913;-77
2021/09/20 12:12:15;;;;;;;;;;;;;;;-142.75;41.40;76918.72;5056492;28;20336;-79
2021/09/20 12:14:52;;;;;;;;;;;;;;;-142.75;42.45;76979.75;5056028;28;20278;-79
2021/09/20 12:17:17;;;;;;;;;;;;;;;-142.75;43.41;76995.50;5056121;28;19912;-77
2021/09/20 12:19:49;;;;;;;;;;;;;;;-142.75;43.59;76981.72;5047730;23;19983;-77
2021/09/20 12:22:14;;;;;;;;;;;;;;;-142.75;43.94;76964.00;5030873;28;19917;-78
2021/09/20 12:24:40;;;;;;;;;;;;;;;-142.75;44.46;76965.97;5017041;28;19964;-77
2021/09/20 12:27:06;;;;;;;;;;;;;;;-142.75;43.47;76960.06;5017601;28;20434;-77